Time;durP1;ratioP1;P1;durP2;ratioP2;P2;SDS_P1;SDS_P2;PMS_P1;PMS_P2;Temp;Humidity;BMP_temperature;BMP_pressure;BME280_temperature;BME280_humidity;BME280_pressure;Samples;Min_cycle;Max_cycle;Signal;HPM_P1;HPM_P2
2023/08/07 00:00:37;;;;;;;5.90;1.88;;;21.30;99.90;;;;;;4913126;29;20552;-76
2023/08/07 00:03:04;;;;;;;2.70;1.48;;;21.40;99.90;;;;;;4902674;29;20053;-78
2023/08/07 00:05:31;;;;;;;4.20;1.92;;;21.30;99.90;;;;;;4909578;29;20044;-76
2023/08/07 00:07:59;;;;;;;3.50;2.20;;;21.30;99.90;;;;;;4903764;29;20553;-76
2023/08/07 00:10:26;;;;;;;4.72;1.80;;;21.20;99.90;;;;;;4909094;29;20056;-76
2023/08/07 00:12:53;;;;;;;2.38;1.75;;;21.10;99.90;;;;;;4911600;29;20057;-79
2023/08/07 00:15:21;;;;;;;3.78;1.55;;;21.10;99.90;;;;;;4911935;29;20193;-78
2023/08/07 00:17:48;;;;;;;4.30;1.70;;;21.00;99.90;;;;;;4913529;29;20529;-78
2023/08/07 00:20:15;;;;;;;2.70;1.75;;;21.00;99.90;;;;;;4897664;29;20049;-79
2023/08/07 00:22:43;;;;;;;3.63;1.77;;;20.90;99.90;;;;;;4904038;29;20056;-77
2023/08/07 00:25:10;;;;;;;3.03;1.67;;;20.90;99.90;;;;;;4907211;29;20068;-76
2023/08/07 00:27:37;;;;;;;3.95;1.90;;;20.90;99.90;;;;;;4906499;29;20433;-76
2023/08/07 00:30:05;;;;;;;5.80;2.45;;;20.80;99.90;;;;;;4902097;29;20105;-79
2023/08/07 00:32:33;;;;;;;4.68;1.83;;;20.70;99.90;;;;;;4900931;29;20080;-78
2023/08/07 00:35:00;;;;;;;4.53;2.10;;;20.70;99.90;;;;;;4898312;29;20432;-77
2023/08/07 00:37:27;;;;;;;4.03;2.03;;;20.60;99.90;;;;;;4898450;29;20132;-76
2023/08/07 00:39:55;;;;;;;3.92;2.25;;;20.40;99.90;;;;;;4897625;29;20405;-77
2023/08/07 00:42:22;;;;;;;3.53;2.03;;;20.50;99.90;;;;;;4896698;29;20465;-77
2023/08/07 00:44:49;;;;;;;5.72;2.30;;;20.60;99.90;;;;;;4901611;29;20048;-76
2023/08/07 00:47:17;;;;;;;4.72;1.90;;;20.60;99.90;;;;;;4897213;29;20052;-76
2023/08/07 00:49:44;;;;;;;3.83;1.88;;;20.40;99.90;;;;;;4900156;29;20057;-77
2023/08/07 00:52:12;;;;;;;3.92;2.20;;;20.40;99.90;;;;;;4898558;29;20140;-78
2023/08/07 00:54:39;;;;;;;7.00;2.00;;;20.50;99.90;;;;;;4898922;29;20795;-78
2023/08/07 00:57:15;;;;;;;3.45;1.92;;;20.50;99.90;;;;;;4904203;29;20044;-77
2023/08/07 00:59:43;;;;;;;3.65;2.05;;;20.50;99.90;;;;;;4885955;29;20560;-78
2023/08/07 01:02:12;;;;;;;6.30;2.10;;;20.20;99.90;;;;;;4898858;29;20531;-78
2023/08/07 01:04:40;;;;;;;4.28;1.70;;;20.10;99.90;;;;;;4904217;29;20534;-78
2023/08/07 01:07:07;;;;;;;5.00;2.17;;;20.30;99.90;;;;;;4899201;29;20460;-78
2023/08/07 01:09:34;;;;;;;6.45;2.00;;;20.40;99.90;;;;;;4899006;29;20056;-78
2023/08/07 01:12:28;;;;;;;6.07;2.33;;;20.40;99.90;;;;;;4882177;29;20055;-78
2023/08/07 01:15:16;;;;;;;3.35;1.85;;;20.20;99.90;;;;;;4899480;29;20076;-76
2023/08/07 01:17:46;;;;;;;3.63;1.90;;;20.30;99.90;;;;;;4899039;29;20083;-79
2023/08/07 01:20:14;;;;;;;3.75;2.00;;;20.20;99.90;;;;;;4900597;29;20049;-77
2023/08/07 01:22:41;;;;;;;5.70;2.20;;;20.30;99.90;;;;;;4902859;29;20417;-77
2023/08/07 01:25:09;;;;;;;4.28;2.15;;;20.40;99.90;;;;;;4908085;29;20040;-79
2023/08/07 01:27:41;;;;;;;4.00;2.25;;;20.40;99.90;;;;;;4892769;29;20053;-79
2023/08/07 01:30:19;;;;;;;3.78;2.10;;;20.40;99.90;;;;;;4900042;29;20411;-77
2023/08/07 01:33:22;;;;;;;4.28;1.80;;;20.40;99.90;;;;;;4907548;29;20481;-79
2023/08/07 01:35:55;;;;;;;6.13;2.15;;;20.40;99.90;;;;;;4902405;29;20060;-80
2023/08/07 01:38:25;;;;;;;5.65;2.38;;;20.50;99.90;;;;;;4904168;29;20531;-79
2023/08/07 01:40:54;;;;;;;6.45;2.17;;;20.40;99.90;;;;;;4901673;29;20060;-79
2023/08/07 01:43:21;;;;;;;3.50;1.80;;;20.40;99.90;;;;;;4893954;29;20843;-77
2023/08/07 01:45:58;;;;;;;6.07;2.00;;;20.40;99.90;;;;;;4910310;29;20147;-78
2023/08/07 01:48:27;;;;;;;23.65;15.52;;;20.30;99.90;;;;;;4912865;29;20048;-76
2023/08/07 01:50:55;;;;;;;49.13;30.38;;;20.40;99.90;;;;;;4917277;29;20152;-76
2023/08/07 01:53:22;;;;;;;6.90;4.07;;;20.40;99.90;;;;;;4904725;29;20055;-79
2023/08/07 01:55:50;;;;;;;7.30;4.57;;;20.30;99.90;;;;;;4905521;29;20489;-77
2023/08/07 01:58:17;;;;;;;3.95;2.55;;;20.30;99.90;;;;;;4905792;29;20055;-78
2023/08/07 02:00:44;;;;;;;6.28;2.65;;;19.90;99.90;;;;;;4911324;29;20469;-79
2023/08/07 02:03:11;;;;;;;5.00;2.13;;;19.80;99.90;;;;;;4909950;29;20413;-77
2023/08/07 02:05:39;;;;;;;4.35;2.03;;;19.90;99.90;;;;;;4914514;29;20437;-79
2023/08/07 02:08:06;;;;;;;9.48;2.80;;;19.90;99.90;;;;;;4898605;29;20404;-77
2023/08/07 02:10:34;;;;;;;4.53;2.08;;;19.90;99.90;;;;;;4906709;29;20122;-77
2023/08/07 02:13:01;;;;;;;4.63;2.15;;;19.80;99.90;;;;;;4904321;29;20054;-81
2023/08/07 02:15:28;;;;;;;4.97;2.20;;;19.80;99.90;;;;;;4900283;29;20394;-78
2023/08/07 02:17:56;;;;;;;4.75;2.25;;;19.80;99.90;;;;;;4913636;29;20048;-79
2023/08/07 02:20:24;;;;;;;7.88;3.38;;;20.00;99.90;;;;;;4888191;29;20112;-80
2023/08/07 02:22:51;;;;;;;6.28;2.47;;;20.10;99.90;;;;;;4905254;29;20060;-79
2023/08/07 02:25:18;;;;;;;8.35;3.60;;;19.90;99.90;;;;;;4901014;29;20052;-80
2023/08/07 02:27:45;;;;;;;6.85;2.90;;;19.90;99.90;;;;;;4902118;29;20126;-79
2023/08/07 02:30:13;;;;;;;3.80;2.03;;;19.90;99.90;;;;;;4900407;29;20076;-79
2023/08/07 02:32:42;;;;;;;4.07;2.17;;;19.60;99.90;;;;;;4905889;29;20139;-80
2023/08/07 02:35:11;;;;;;;6.70;2.55;;;19.60;99.90;;;;;;4905764;29;20491;-79
2023/08/07 02:37:43;;;;;;;5.88;2.40;;;19.60;99.90;;;;;;4902523;29;20056;-78
2023/08/07 02:40:11;;;;;;;6.20;2.10;;;19.60;99.90;;;;;;4894623;29;20641;-76
2023/08/07 02:42:38;;;;;;;3.97;2.20;;;19.50;99.90;;;;;;4897735;29;20536;-77
2023/08/07 02:45:06;;;;;;;4.43;2.20;;;19.60;99.90;;;;;;4909230;29;20485;-78
2023/08/07 02:47:33;;;;;;;3.95;2.20;;;19.60;99.90;;;;;;4902960;29;20043;-82
2023/08/07 02:50:01;;;;;;;4.57;2.13;;;19.50;99.90;;;;;;4916591;29;20052;-77
2023/08/07 02:52:29;;;;;;;6.32;2.10;;;19.40;99.90;;;;;;4897188;29;20458;-77
2023/08/07 02:54:56;;;;;;;6.80;2.60;;;19.30;99.90;;;;;;4897050;29;20476;-75
2023/08/07 02:57:24;;;;;;;6.75;2.53;;;19.10;99.90;;;;;;4904547;29;20526;-80
2023/08/07 02:59:52;;;;;;;7.90;3.00;;;19.00;99.90;;;;;;4907458;29;20055;-83
2023/08/07 03:02:19;;;;;;;16.10;8.30;;;19.20;99.90;;;;;;4908410;29;20084;-87
2023/08/07 03:04:47;;;;;;;22.10;12.65;;;19.10;99.90;;;;;;4912048;29;20055;-81
2023/08/07 03:07:14;;;;;;;73.53;43.47;;;19.00;99.90;;;;;;4915956;29;20048;-81
2023/08/07 03:09:44;;;;;;;32.45;22.42;;;19.00;99.90;;;;;;4898425;29;20143;-85
2023/08/07 03:12:11;;;;;;;28.92;18.95;;;19.10;99.90;;;;;;4917659;29;20075;-88
2023/08/07 03:14:39;;;;;;;29.45;18.33;;;19.10;99.90;;;;;;4914727;29;20071;-81
2023/08/07 03:17:06;;;;;;;32.55;22.92;;;19.10;99.90;;;;;;4915643;29;20567;-84
2023/08/07 03:19:33;;;;;;;8.27;5.38;;;19.10;99.90;;;;;;4915309;29;20126;-84
2023/08/07 03:22:01;;;;;;;10.63;5.18;;;19.00;99.90;;;;;;4916568;29;20153;-80
2023/08/07 03:24:28;;;;;;;11.25;6.80;;;18.80;99.90;;;;;;4898970;29;20044;-86
2023/08/07 03:26:55;;;;;;;12.10;5.30;;;19.10;99.90;;;;;;4896439;29;20169;-81
2023/08/07 03:29:23;;;;;;;6.72;3.80;;;19.40;99.90;;;;;;4913759;29;20051;-82
2023/08/07 03:31:51;;;;;;;5.65;3.00;;;19.50;99.90;;;;;;4888050;29;20135;-81
2023/08/07 03:34:18;;;;;;;5.82;2.78;;;19.40;99.90;;;;;;4902797;29;20056;-83
2023/08/07 03:36:46;;;;;;;8.95;5.00;;;19.30;99.90;;;;;;4909130;29;20136;-79
2023/08/07 03:39:13;;;;;;;64.03;39.85;;;19.40;99.90;;;;;;4896663;29;20055;-79
2023/08/07 03:41:41;;;;;;;18.73;11.23;;;19.40;99.90;;;;;;4913760;29;20131;-79
2023/08/07 03:44:08;;;;;;;11.57;6.53;;;19.20;99.90;;;;;;4915353;29;20059;-80
2023/08/07 03:46:35;;;;;;;54.80;36.08;;;19.00;99.90;;;;;;4898939;29;20087;-78
2023/08/07 03:49:03;;;;;;;49.63;33.20;;;18.90;99.90;;;;;;4914039;29;20103;-82
2023/08/07 03:51:32;;;;;;;21.15;13.20;;;19.00;99.90;;;;;;4914400;29;20058;-78
2023/08/07 03:53:59;;;;;;;39.08;25.95;;;18.90;99.90;;;;;;4906030;29;20062;-80
2023/08/07 03:56:27;;;;;;;16.67;9.98;;;18.90;99.90;;;;;;4892739;29;20055;-78
2023/08/07 03:58:54;;;;;;;9.20;5.25;;;18.90;99.90;;;;;;4908156;29;20520;-79
2023/08/07 04:01:21;;;;;;;18.52;6.90;;;18.80;99.90;;;;;;4913284;29;20056;-76
2023/08/07 04:03:48;;;;;;;13.52;4.90;;;18.80;99.90;;;;;;4911744;29;20047;-77
2023/08/07 04:06:16;;;;;;;7.22;4.07;;;18.90;99.90;;;;;;4905073;29;20505;-77
2023/08/07 04:08:45;;;;;;;7.47;3.80;;;18.80;99.90;;;;;;4889483;29;20527;-77
2023/08/07 04:11:13;;;;;;;5.50;3.00;;;18.90;99.90;;;;;;4907304;29;20057;-78
2023/08/07 04:13:40;;;;;;;6.90;2.92;;;18.80;99.90;;;;;;4910199;29;20437;-79
2023/08/07 04:16:07;;;;;;;7.75;3.30;;;18.80;99.90;;;;;;4906944;29;20067;-80
2023/08/07 04:18:35;;;;;;;18.02;5.78;;;18.90;99.90;;;;;;4915497;29;20123;-86
